sensor_id;sensor_type;location;lat;lon;timestamp;temperature;humidity
17425;DHT22;8830;50.978;5.058;2023-02-20T00:07:37;6.10;99.90
17425;DHT22;8830;50.978;5.058;2023-02-20T00:10:29;6.10;99.90
17425;DHT22;8830;50.978;5.058;2023-02-20T00:13:15;6.00;99.90
17425;DHT22;8830;50.978;5.058;2023-02-20T00:18:09;6.00;99.90
17425;DHT22;8830;50.978;5.058;2023-02-20T00:20:37;6.00;99.90
17425;DHT22;8830;50.978;5.058;2023-02-20T00:23:04;6.00;99.90
17425;DHT22;8830;50.978;5.058;2023-02-20T00:25:31;5.90;99.90
17425;DHT22;8830;50.978;5.058;2023-02-20T00:27:58;6.00;99.90
17425;DHT22;8830;50.978;5.058;2023-02-20T00:30:29;5.90;99.90
17425;DHT22;8830;50.978;5.058;2023-02-20T00:32:57;5.90;99.90
17425;DHT22;8830;50.978;5.058;2023-02-20T00:35:26;5.90;99.90
17425;DHT22;8830;50.978;5.058;2023-02-20T00:37:54;5.90;99.90
17425;DHT22;8830;50.978;5.058;2023-02-20T00:40:22;5.90;99.90
17425;DHT22;8830;50.978;5.058;2023-02-20T00:42:50;5.90;99.90
17425;DHT22;8830;50.978;5.058;2023-02-20T00:45:20;5.90;99.90
17425;DHT22;8830;50.978;5.058;2023-02-20T00:47:48;5.90;99.90
17425;DHT22;8830;50.978;5.058;2023-02-20T00:50:16;5.90;99.90
17425;DHT22;8830;50.978;5.058;2023-02-20T00:52:49;5.90;99.90
17425;DHT22;8830;50.978;5.058;2023-02-20T00:55:16;5.80;99.90
17425;DHT22;8830;50.978;5.058;2023-02-20T00:57:43;5.90;99.90
17425;DHT22;8830;50.978;5.058;2023-02-20T01:00:18;5.70;99.90
17425;DHT22;8830;50.978;5.058;2023-02-20T01:02:51;5.70;99.90
17425;DHT22;8830;50.978;5.058;2023-02-20T01:05:19;5.70;99.90
17425;DHT22;8830;50.978;5.058;2023-02-20T01:07:46;5.70;99.90
17425;DHT22;8830;50.978;5.058;2023-02-20T01:10:15;5.70;99.90
17425;DHT22;8830;50.978;5.058;2023-02-20T01:12:42;5.70;99.90
17425;DHT22;8830;50.978;5.058;2023-02-20T01:15:11;5.70;99.90
17425;DHT22;8830;50.978;5.058;2023-02-20T01:17:41;5.70;99.90
17425;DHT22;8830;50.978;5.058;2023-02-20T01:20:10;5.70;99.90
17425;DHT22;8830;50.978;5.058;2023-02-20T01:22:38;5.70;99.90
17425;DHT22;8830;50.978;5.058;2023-02-20T01:25:06;7.70;99.90
17425;DHT22;8830;50.978;5.058;2023-02-20T01:27:36;5.70;99.90
17425;DHT22;8830;50.978;5.058;2023-02-20T01:30:11;5.80;99.90
17425;DHT22;8830;50.978;5.058;2023-02-20T01:32:38;5.70;99.90
17425;DHT22;8830;50.978;5.058;2023-02-20T01:35:06;5.80;99.90
17425;DHT22;8830;50.978;5.058;2023-02-20T01:37:37;5.70;99.90
17425;DHT22;8830;50.978;5.058;2023-02-20T01:40:06;5.90;99.90
17425;DHT22;8830;50.978;5.058;2023-02-20T01:42:36;5.70;99.90
17425;DHT22;8830;50.978;5.058;2023-02-20T01:45:28;5.70;99.90
17425;DHT22;8830;50.978;5.058;2023-02-20T01:47:59;5.70;99.90
17425;DHT22;8830;50.978;5.058;2023-02-20T01:50:29;5.70;99.90
17425;DHT22;8830;50.978;5.058;2023-02-20T01:53:02;5.80;99.90
17425;DHT22;8830;50.978;5.058;2023-02-20T01:55:41;5.80;99.90
17425;DHT22;8830;50.978;5.058;2023-02-20T01:58:13;5.80;99.90
17425;DHT22;8830;50.978;5.058;2023-02-20T02:00:40;5.80;99.90
17425;DHT22;8830;50.978;5.058;2023-02-20T02:03:11;5.80;99.90
17425;DHT22;8830;50.978;5.058;2023-02-20T02:05:42;5.80;99.90
17425;DHT22;8830;50.978;5.058;2023-02-20T02:08:12;5.80;99.90
17425;DHT22;8830;50.978;5.058;2023-02-20T02:10:50;5.80;99.90
17425;DHT22;8830;50.978;5.058;2023-02-20T02:13:18;5.80;99.90
17425;DHT22;8830;50.978;5.058;2023-02-20T02:15:50;5.80;99.90
17425;DHT22;8830;50.978;5.058;2023-02-20T02:18:35;5.70;99.90
17425;DHT22;8830;50.978;5.058;2023-02-20T02:21:30;5.70;99.90
17425;DHT22;8830;50.978;5.058;2023-02-20T02:27:31;5.60;99.90
17425;DHT22;8830;50.978;5.058;2023-02-20T02:30:42;5.60;99.90
17425;DHT22;8830;50.978;5.058;2023-02-20T02:33:33;5.60;99.90
17425;DHT22;8830;50.978;5.058;2023-02-20T02:36:36;5.60;99.90
17425;DHT22;8830;50.978;5.058;2023-02-20T02:39:14;5.60;99.90
17425;DHT22;8830;50.978;5.058;2023-02-20T02:41:52;5.50;99.90
17425;DHT22;8830;50.978;5.058;2023-02-20T02:44:27;5.60;99.90
17425;DHT22;8830;50.978;5.058;2023-02-20T02:46:58;5.70;99.90
17425;DHT22;8830;50.978;5.058;2023-02-20T02:49:33;5.90;99.90
17425;DHT22;8830;50.978;5.058;2023-02-20T02:52:04;5.90;99.90
17425;DHT22;8830;50.978;5.058;2023-02-20T02:54:35;6.00;99.90
17425;DHT22;8830;50.978;5.058;2023-02-20T02:57:27;6.00;99.90
17425;DHT22;8830;50.978;5.058;2023-02-20T02:59:59;6.00;99.90
17425;DHT22;8830;50.978;5.058;2023-02-20T03:02:30;6.10;99.90
17425;DHT22;8830;50.978;5.058;2023-02-20T03:05:09;6.10;99.90
17425;DHT22;8830;50.978;5.058;2023-02-20T03:07:40;7.00;99.90
17425;DHT22;8830;50.978;5.058;2023-02-20T03:10:12;6.20;99.90
17425;DHT22;8830;50.978;5.058;2023-02-20T03:12:48;6.30;99.90
17425;DHT22;8830;50.978;5.058;2023-02-20T03:15:21;6.20;99.90
17425;DHT22;8830;50.978;5.058;2023-02-20T03:18:14;6.20;99.90
17425;DHT22;8830;50.978;5.058;2023-02-20T03:20:48;6.30;99.90
17425;DHT22;8830;50.978;5.058;2023-02-20T03:23:23;6.30;99.90
17425;DHT22;8830;50.978;5.058;2023-02-20T03:25:55;6.40;99.90
17425;DHT22;8830;50.978;5.058;2023-02-20T03:28:25;6.40;99.90
17425;DHT22;8830;50.978;5.058;2023-02-20T03:30:56;6.40;99.90
17425;DHT22;8830;50.978;5.058;2023-02-20T03:33:32;6.30;99.90
17425;DHT22;8830;50.978;5.058;2023-02-20T03:36:25;6.70;99.90
17425;DHT22;8830;50.978;5.058;2023-02-20T03:39:18;6.40;99.90
17425;DHT22;8830;50.978;5.058;2023-02-20T03:42:06;6.50;99.90
17425;DHT22;8830;50.978;5.058;2023-02-20T03:44:57;9.90;99.90
17425;DHT22;8830;50.978;5.058;2023-02-20T03:47:26;6.30;99.90
17425;DHT22;8830;50.978;5.058;2023-02-20T03:49:54;7.00;99.90
17425;DHT22;8830;50.978;5.058;2023-02-20T03:52:22;6.80;99.90
17425;DHT22;8830;50.978;5.058;2023-02-20T03:54:53;6.20;99.90
17425;DHT22;8830;50.978;5.058;2023-02-20T03:57:27;6.20;99.90
17425;DHT22;8830;50.978;5.058;2023-02-20T03:59:59;6.90;99.90
17425;DHT22;8830;50.978;5.058;2023-02-20T04:02:30;6.10;99.90
17425;DHT22;8830;50.978;5.058;2023-02-20T04:05:00;6.10;99.90
17425;DHT22;8830;50.978;5.058;2023-02-20T04:07:34;9.20;99.90
17425;DHT22;8830;50.978;5.058;2023-02-20T04:10:06;6.00;99.90
17425;DHT22;8830;50.978;5.058;2023-02-20T04:12:36;5.90;99.90
17425;DHT22;8830;50.978;5.058;2023-02-20T04:15:08;5.90;99.90
17425;DHT22;8830;50.978;5.058;2023-02-20T04:17:39;3.30;99.90
17425;DHT22;8830;50.978;5.058;2023-02-20T04:20:10;5.90;99.90
17425;DHT22;8830;50.978;5.058;2023-02-20T04:22:40;5.90;99.90
17425;DHT22;8830;50.978;5.058;2023-02-20T04:25:17;6.00;99.90
17425;DHT22;8830;50.978;5.058;2023-02-20T04:27:48;5.90;99.90
17425;DHT22;8830;50.978;5.058;2023-02-20T04:30:17;3.40;99.90
17425;DHT22;8830;50.978;5.058;2023-02-20T04:32:44;6.10;99.90
17425;DHT22;8830;50.978;5.058;2023-02-20T04:35:16;6.10;99.90
17425;DHT22;8830;50.978;5.058;2023-02-20T04:37:43;6.10;99.90
17425;DHT22;8830;50.978;5.058;2023-02-20T04:40:14;6.20;99.90
17425;DHT22;8830;50.978;5.058;2023-02-20T04:42:41;8.20;99.90
17425;DHT22;8830;50.978;5.058;2023-02-20T04:45:08;7.70;99.90
17425;DHT22;8830;50.978;5.058;2023-02-20T04:47:35;6.50;99.90
17425;DHT22;8830;50.978;5.058;2023-02-20T04:50:03;6.50;99.90
17425;DHT22;8830;50.978;5.058;2023-02-20T04:52:30;6.50;99.90
17425;DHT22;8830;50.978;5.058;2023-02-20T04:55:12;6.60;99.90
17425;DHT22;8830;50.978;5.058;2023-02-20T04:57:39;6.70;99.90
17425;DHT22;8830;50.978;5.058;2023-02-20T05:00:12;6.70;99.90
17425;DHT22;8830;50.978;5.058;2023-02-20T05:02:40;6.70;99.90
17425;DHT22;8830;50.978;5.058;2023-02-20T05:05:16;6.80;99.90
17425;DHT22;8830;50.978;5.058;2023-02-20T05:07:43;6.90;99.90
17425;DHT22;8830;50.978;5.058;2023-02-20T05:10:14;6.90;99.90
17425;DHT22;8830;50.978;5.058;2023-02-20T05:12:41;7.00;99.90
17425;DHT22;8830;50.978;5.058;2023-02-20T05:15:08;7.00;99.90
17425;DHT22;8830;50.978;5.058;2023-02-20T05:20:05;7.10;99.90
17425;DHT22;8830;50.978;5.058;2023-02-20T05:22:33;7.10;99.90
17425;DHT22;8830;50.978;5.058;2023-02-20T05:24:59;7.10;99.90
17425;DHT22;8830;50.978;5.058;2023-02-20T05:27:28;7.10;99.90
17425;DHT22;8830;50.978;5.058;2023-02-20T05:30:05;7.50;99.90
17425;DHT22;8830;50.978;5.058;2023-02-20T05:32:32;7.10;99.90
17425;DHT22;8830;50.978;5.058;2023-02-20T05:35:00;7.20;99.90
17425;DHT22;8830;50.978;5.058;2023-02-20T05:37:29;7.30;99.90
17425;DHT22;8830;50.978;5.058;2023-02-20T05:39:57;7.30;99.90
17425;DHT22;8830;50.978;5.058;2023-02-20T05:42:24;7.30;99.90
17425;DHT22;8830;50.978;5.058;2023-02-20T05:44:57;7.30;99.90
17425;DHT22;8830;50.978;5.058;2023-02-20T05:49:51;7.30;99.90
17425;DHT22;8830;50.978;5.058;2023-02-20T05:54:46;7.40;99.90
17425;DHT22;8830;50.978;5.058;2023-02-20T05:57:14;7.40;99.90
17425;DHT22;8830;50.978;5.058;2023-02-20T05:59:42;7.40;99.90
17425;DHT22;8830;50.978;5.058;2023-02-20T06:02:10;8.60;99.90
17425;DHT22;8830;50.978;5.058;2023-02-20T06:04:40;10.10;99.90
17425;DHT22;8830;50.978;5.058;2023-02-20T06:07:07;7.50;99.90
17425;DHT22;8830;50.978;5.058;2023-02-20T06:09:40;10.50;99.90
17425;DHT22;8830;50.978;5.058;2023-02-20T06:12:10;7.90;99.90
17425;DHT22;8830;50.978;5.058;2023-02-20T06:14:37;7.50;99.90
17425;DHT22;8830;50.978;5.058;2023-02-20T06:17:05;7.50;99.90
17425;DHT22;8830;50.978;5.058;2023-02-20T06:19:34;7.50;99.90
17425;DHT22;8830;50.978;5.058;2023-02-20T06:24:28;7.60;99.90
17425;DHT22;8830;50.978;5.058;2023-02-20T06:26:59;7.60;99.90
17425;DHT22;8830;50.978;5.058;2023-02-20T06:29:31;7.60;99.90
17425;DHT22;8830;50.978;5.058;2023-02-20T06:31:58;7.60;99.90
17425;DHT22;8830;50.978;5.058;2023-02-20T06:36:58;7.70;99.90
17425;DHT22;8830;50.978;5.058;2023-02-20T06:39:28;7.60;99.90
17425;DHT22;8830;50.978;5.058;2023-02-20T06:41:56;7.60;99.90
17425;DHT22;8830;50.978;5.058;2023-02-20T06:44:23;7.60;99.90
17425;DHT22;8830;50.978;5.058;2023-02-20T06:46:52;7.70;99.90
17425;DHT22;8830;50.978;5.058;2023-02-20T06:49:22;7.90;99.90
17425;DHT22;8830;50.978;5.058;2023-02-20T06:51:52;7.70;99.90
17425;DHT22;8830;50.978;5.058;2023-02-20T06:56:48;7.70;99.90
17425;DHT22;8830;50.978;5.058;2023-02-20T06:59:17;10.50;99.90
17425;DHT22;8830;50.978;5.058;2023-02-20T07:01:44;7.80;99.90
17425;DHT22;8830;50.978;5.058;2023-02-20T07:04:16;7.80;99.90
17425;DHT22;8830;50.978;5.058;2023-02-20T07:06:46;7.80;99.90
17425;DHT22;8830;50.978;5.058;2023-02-20T07:09:24;7.80;99.90
17425;DHT22;8830;50.978;5.058;2023-02-20T07:12:04;7.80;99.90
17425;DHT22;8830;50.978;5.058;2023-02-20T07:14:51;7.90;99.90
17425;DHT22;8830;50.978;5.058;2023-02-20T07:17:23;7.90;99.90
17425;DHT22;8830;50.978;5.058;2023-02-20T07:20:06;7.90;99.90
17425;DHT22;8830;50.978;5.058;2023-02-20T07:23:08;8.00;99.90
17425;DHT22;8830;50.978;5.058;2023-02-20T07:26:22;7.90;99.90
17425;DHT22;8830;50.978;5.058;2023-02-20T07:28:50;8.20;99.90
17425;DHT22;8830;50.978;5.058;2023-02-20T07:31:25;8.00;99.90
17425;DHT22;8830;50.978;5.058;2023-02-20T07:33:57;8.00;99.90
17425;DHT22;8830;50.978;5.058;2023-02-20T07:36:31;8.10;99.90
17425;DHT22;8830;50.978;5.058;2023-02-20T07:39:40;9.30;99.90
17425;DHT22;8830;50.978;5.058;2023-02-20T07:42:42;8.20;99.90
17425;DHT22;8830;50.978;5.058;2023-02-20T07:47:48;8.20;99.90
17425;DHT22;8830;50.978;5.058;2023-02-20T07:50:32;8.20;99.90
17425;DHT22;8830;50.978;5.058;2023-02-20T07:53:38;8.30;99.90
17425;DHT22;8830;50.978;5.058;2023-02-20T07:59:19;8.30;99.90
17425;DHT22;8830;50.978;5.058;2023-02-20T08:01:57;8.40;99.90
17425;DHT22;8830;50.978;5.058;2023-02-20T08:04:32;8.50;99.90
17425;DHT22;8830;50.978;5.058;2023-02-20T08:07:04;8.50;99.90
17425;DHT22;8830;50.978;5.058;2023-02-20T08:09:45;8.60;99.90
17425;DHT22;8830;50.978;5.058;2023-02-20T08:12:44;8.70;99.90
17425;DHT22;8830;50.978;5.058;2023-02-20T08:15:33;8.70;99.90
17425;DHT22;8830;50.978;5.058;2023-02-20T08:18:17;8.70;99.90
17425;DHT22;8830;50.978;5.058;2023-02-20T08:21:39;8.80;99.90
17425;DHT22;8830;50.978;5.058;2023-02-20T08:24:32;8.80;99.90
17425;DHT22;8830;50.978;5.058;2023-02-20T08:30:10;8.90;99.90
17425;DHT22;8830;50.978;5.058;2023-02-20T08:33:05;8.90;99.90
17425;DHT22;8830;50.978;5.058;2023-02-20T08:35:45;9.00;99.90
17425;DHT22;8830;50.978;5.058;2023-02-20T08:38:27;9.00;99.90
17425;DHT22;8830;50.978;5.058;2023-02-20T08:40:58;9.00;99.90
17425;DHT22;8830;50.978;5.058;2023-02-20T08:43:36;9.10;99.90
17425;DHT22;8830;50.978;5.058;2023-02-20T08:46:17;9.10;99.90
17425;DHT22;8830;50.978;5.058;2023-02-20T08:48:55;9.10;99.90
17425;DHT22;8830;50.978;5.058;2023-02-20T08:51:31;9.20;99.90
17425;DHT22;8830;50.978;5.058;2023-02-20T08:54:14;9.10;99.90
17425;DHT22;8830;50.978;5.058;2023-02-20T08:59:15;9.20;99.90
17425;DHT22;8830;50.978;5.058;2023-02-20T09:01:50;9.30;99.90
17425;DHT22;8830;50.978;5.058;2023-02-20T09:04:19;11.90;99.90
17425;DHT22;8830;50.978;5.058;2023-02-20T09:06:50;9.30;99.90
17425;DHT22;8830;50.978;5.058;2023-02-20T09:11:44;9.30;99.90
17425;DHT22;8830;50.978;5.058;2023-02-20T09:14:11;9.40;99.90
17425;DHT22;8830;50.978;5.058;2023-02-20T09:19:07;9.50;99.90
17425;DHT22;8830;50.978;5.058;2023-02-20T09:24:05;9.60;99.90
17425;DHT22;8830;50.978;5.058;2023-02-20T09:29:04;9.70;99.90
17425;DHT22;8830;50.978;5.058;2023-02-20T09:31:33;9.70;99.90
17425;DHT22;8830;50.978;5.058;2023-02-20T09:34:10;9.80;99.90
17425;DHT22;8830;50.978;5.058;2023-02-20T09:36:45;9.90;99.90
17425;DHT22;8830;50.978;5.058;2023-02-20T09:42:16;9.90;99.90
17425;DHT22;8830;50.978;5.058;2023-02-20T09:44:58;13.60;99.90
17425;DHT22;8830;50.978;5.058;2023-02-20T09:47:48;9.90;99.90
17425;DHT22;8830;50.978;5.058;2023-02-20T09:50:38;7.60;99.90
17425;DHT22;8830;50.978;5.058;2023-02-20T09:53:21;9.90;99.90
17425;DHT22;8830;50.978;5.058;2023-02-20T09:55:56;9.80;99.90
17425;DHT22;8830;50.978;5.058;2023-02-20T09:58:32;9.90;99.90
17425;DHT22;8830;50.978;5.058;2023-02-20T10:01:03;9.90;99.90
17425;DHT22;8830;50.978;5.058;2023-02-20T10:03:38;9.90;99.90
17425;DHT22;8830;50.978;5.058;2023-02-20T10:06:18;10.00;99.90
17425;DHT22;8830;50.978;5.058;2023-02-20T10:08:53;10.00;99.90
17425;DHT22;8830;50.978;5.058;2023-02-20T10:11:46;10.10;99.90
17425;DHT22;8830;50.978;5.058;2023-02-20T10:14:42;10.10;99.90
17425;DHT22;8830;50.978;5.058;2023-02-20T10:17:33;10.10;99.90
17425;DHT22;8830;50.978;5.058;2023-02-20T10:20:27;8.90;99.90
17425;DHT22;8830;50.978;5.058;2023-02-20T10:23:04;10.30;99.90
17425;DHT22;8830;50.978;5.058;2023-02-20T10:25:38;6.40;99.90
17425;DHT22;8830;50.978;5.058;2023-02-20T10:28:10;10.10;99.90
17425;DHT22;8830;50.978;5.058;2023-02-20T10:30:45;10.00;99.90
17425;DHT22;8830;50.978;5.058;2023-02-20T10:33:25;9.90;99.90
17425;DHT22;8830;50.978;5.058;2023-02-20T10:36:01;8.70;99.90
17425;DHT22;8830;50.978;5.058;2023-02-20T10:38:53;10.00;99.90
17425;DHT22;8830;50.978;5.058;2023-02-20T10:41:45;10.00;99.90
17425;DHT22;8830;50.978;5.058;2023-02-20T10:44:23;10.00;99.90
17425;DHT22;8830;50.978;5.058;2023-02-20T10:46:56;10.10;99.90
17425;DHT22;8830;50.978;5.058;2023-02-20T10:49:34;10.10;99.90
17425;DHT22;8830;50.978;5.058;2023-02-20T10:52:05;10.20;99.90
17425;DHT22;8830;50.978;5.058;2023-02-20T10:54:44;10.30;99.90
17425;DHT22;8830;50.978;5.058;2023-02-20T10:57:24;12.40;99.90
17425;DHT22;8830;50.978;5.058;2023-02-20T10:59:59;10.30;99.90
17425;DHT22;8830;50.978;5.058;2023-02-20T11:02:33;10.30;99.90
17425;DHT22;8830;50.978;5.058;2023-02-20T11:05:10;10.40;99.90
17425;DHT22;8830;50.978;5.058;2023-02-20T11:07:44;10.40;99.90
17425;DHT22;8830;50.978;5.058;2023-02-20T11:10:17;10.40;99.90
17425;DHT22;8830;50.978;5.058;2023-02-20T11:12:53;10.40;99.90
17425;DHT22;8830;50.978;5.058;2023-02-20T11:15:34;10.40;99.90
17425;DHT22;8830;50.978;5.058;2023-02-20T11:18:10;10.60;99.90
17425;DHT22;8830;50.978;5.058;2023-02-20T11:20:44;10.60;99.90
17425;DHT22;8830;50.978;5.058;2023-02-20T11:23:32;10.60;99.90
17425;DHT22;8830;50.978;5.058;2023-02-20T11:26:25;10.60;99.90
17425;DHT22;8830;50.978;5.058;2023-02-20T11:29:24;10.50;99.90
17425;DHT22;8830;50.978;5.058;2023-02-20T11:35:31;10.50;99.90
17425;DHT22;8830;50.978;5.058;2023-02-20T11:45:10;10.40;99.90
17425;DHT22;8830;50.978;5.058;2023-02-20T11:57:42;10.50;99.90
17425;DHT22;8830;50.978;5.058;2023-02-20T12:03:35;10.40;99.90
17425;DHT22;8830;50.978;5.058;2023-02-20T12:15:58;10.50;99.90
17425;DHT22;8830;50.978;5.058;2023-02-20T12:18:41;10.60;99.90
17425;DHT22;8830;50.978;5.058;2023-02-20T12:25:06;10.60;99.90
17425;DHT22;8830;50.978;5.058;2023-02-20T12:31:16;10.70;99.90
17425;DHT22;8830;50.978;5.058;2023-02-20T12:50:52;10.70;99.90
17425;DHT22;8830;50.978;5.058;2023-02-20T12:53:54;10.70;99.90
17425;DHT22;8830;50.978;5.058;2023-02-20T12:56:29;10.70;99.90
17425;DHT22;8830;50.978;5.058;2023-02-20T12:59:06;10.90;99.90
17425;DHT22;8830;50.978;5.058;2023-02-20T13:01:36;10.80;99.90
17425;DHT22;8830;50.978;5.058;2023-02-20T13:04:16;10.90;99.90
17425;DHT22;8830;50.978;5.058;2023-02-20T13:06:51;11.00;99.90
17425;DHT22;8830;50.978;5.058;2023-02-20T13:09:23;10.90;99.90
17425;DHT22;8830;50.978;5.058;2023-02-20T13:11:55;11.00;99.90
17425;DHT22;8830;50.978;5.058;2023-02-20T13:14:32;10.80;99.90
17425;DHT22;8830;50.978;5.058;2023-02-20T13:17:13;11.00;99.90
17425;DHT22;8830;50.978;5.058;2023-02-20T13:19:51;10.90;99.90
17425;DHT22;8830;50.978;5.058;2023-02-20T13:22:21;10.90;99.90
17425;DHT22;8830;50.978;5.058;2023-02-20T13:28:42;10.90;99.90
17425;DHT22;8830;50.978;5.058;2023-02-20T13:34:54;11.00;99.90
17425;DHT22;8830;50.978;5.058;2023-02-20T13:38:23;11.00;99.90
17425;DHT22;8830;50.978;5.058;2023-02-20T13:41:18;10.90;99.90
17425;DHT22;8830;50.978;5.058;2023-02-20T13:54:02;10.90;99.90
17425;DHT22;8830;50.978;5.058;2023-02-20T13:57:28;10.90;99.90
17425;DHT22;8830;50.978;5.058;2023-02-20T14:00:25;11.00;99.90
17425;DHT22;8830;50.978;5.058;2023-02-20T14:02:58;11.10;99.90
17425;DHT22;8830;50.978;5.058;2023-02-20T14:09:07;11.10;99.90
17425;DHT22;8830;50.978;5.058;2023-02-20T14:15:21;11.20;99.90
17425;DHT22;8830;50.978;5.058;2023-02-20T14:18:39;11.20;99.90
17425;DHT22;8830;50.978;5.058;2023-02-20T14:21:24;11.20;99.90
17425;DHT22;8830;50.978;5.058;2023-02-20T14:24:27;11.20;99.90
17425;DHT22;8830;50.978;5.058;2023-02-20T14:27:23;11.20;99.90
17425;DHT22;8830;50.978;5.058;2023-02-20T14:30:03;11.30;99.90
17425;DHT22;8830;50.978;5.058;2023-02-20T14:32:30;11.30;99.90
17425;DHT22;8830;50.978;5.058;2023-02-20T14:35:04;11.60;99.90
17425;DHT22;8830;50.978;5.058;2023-02-20T14:37:36;11.20;99.90
17425;DHT22;8830;50.978;5.058;2023-02-20T14:40:11;12.60;99.90
17425;DHT22;8830;50.978;5.058;2023-02-20T14:42:43;11.20;99.90
17425;DHT22;8830;50.978;5.058;2023-02-20T14:45:15;11.30;99.90
17425;DHT22;8830;50.978;5.058;2023-02-20T14:47:59;11.30;99.90
17425;DHT22;8830;50.978;5.058;2023-02-20T14:50:28;11.20;99.90
17425;DHT22;8830;50.978;5.058;2023-02-20T14:53:14;11.30;99.90
17425;DHT22;8830;50.978;5.058;2023-02-20T14:55:50;11.20;99.90
17425;DHT22;8830;50.978;5.058;2023-02-20T14:58:22;11.10;99.90
17425;DHT22;8830;50.978;5.058;2023-02-20T15:00:49;11.10;99.90
17425;DHT22;8830;50.978;5.058;2023-02-20T15:03:20;11.40;99.90
17425;DHT22;8830;50.978;5.058;2023-02-20T15:05:50;10.90;99.90
17425;DHT22;8830;50.978;5.058;2023-02-20T15:08:23;10.90;99.90
17425;DHT22;8830;50.978;5.058;2023-02-20T15:10:53;10.90;99.90
17425;DHT22;8830;50.978;5.058;2023-02-20T15:13:23;10.80;99.90
17425;DHT22;8830;50.978;5.058;2023-02-20T15:16:02;10.80;99.90
17425;DHT22;8830;50.978;5.058;2023-02-20T15:18:33;10.70;99.90
17425;DHT22;8830;50.978;5.058;2023-02-20T15:21:08;10.70;99.90
17425;DHT22;8830;50.978;5.058;2023-02-20T15:23:47;10.70;99.90
17425;DHT22;8830;50.978;5.058;2023-02-20T15:26:35;10.70;99.90
17425;DHT22;8830;50.978;5.058;2023-02-20T15:29:20;10.70;99.90
17425;DHT22;8830;50.978;5.058;2023-02-20T15:31:55;10.70;99.90
17425;DHT22;8830;50.978;5.058;2023-02-20T15:34:25;10.70;99.90
17425;DHT22;8830;50.978;5.058;2023-02-20T15:36:52;10.70;99.90
17425;DHT22;8830;50.978;5.058;2023-02-20T15:39:20;10.70;99.90
17425;DHT22;8830;50.978;5.058;2023-02-20T15:41:49;10.70;99.90
17425;DHT22;8830;50.978;5.058;2023-02-20T15:46:45;10.90;99.90
17425;DHT22;8830;50.978;5.058;2023-02-20T15:49:15;12.10;99.90
17425;DHT22;8830;50.978;5.058;2023-02-20T15:51:45;7.30;99.90
17425;DHT22;8830;50.978;5.058;2023-02-20T15:54:15;10.60;99.90
17425;DHT22;8830;50.978;5.058;2023-02-20T15:56:43;8.10;99.90
17425;DHT22;8830;50.978;5.058;2023-02-20T15:59:16;10.90;99.90
17425;DHT22;8830;50.978;5.058;2023-02-20T16:01:44;8.80;99.90
17425;DHT22;8830;50.978;5.058;2023-02-20T16:04:14;10.60;99.90
17425;DHT22;8830;50.978;5.058;2023-02-20T16:06:42;10.60;99.90
17425;DHT22;8830;50.978;5.058;2023-02-20T16:09:11;10.60;99.90
17425;DHT22;8830;50.978;5.058;2023-02-20T16:11:40;10.60;99.90
17425;DHT22;8830;50.978;5.058;2023-02-20T16:14:16;10.60;99.90
17425;DHT22;8830;50.978;5.058;2023-02-20T16:16:46;11.40;99.90
17425;DHT22;8830;50.978;5.058;2023-02-20T16:19:15;10.50;99.90
17425;DHT22;8830;50.978;5.058;2023-02-20T16:24:10;13.40;99.90
17425;DHT22;8830;50.978;5.058;2023-02-20T16:26:46;10.50;99.90
17425;DHT22;8830;50.978;5.058;2023-02-20T16:29:18;10.50;99.90
17425;DHT22;8830;50.978;5.058;2023-02-20T16:32:18;10.50;99.90
17425;DHT22;8830;50.978;5.058;2023-02-20T16:37:19;10.40;99.90
17425;DHT22;8830;50.978;5.058;2023-02-20T16:39:49;10.40;99.90
17425;DHT22;8830;50.978;5.058;2023-02-20T16:42:30;10.40;99.90
17425;DHT22;8830;50.978;5.058;2023-02-20T16:45:02;10.40;99.90
17425;DHT22;8830;50.978;5.058;2023-02-20T16:47:29;10.40;99.90
17425;DHT22;8830;50.978;5.058;2023-02-20T16:49:59;10.40;99.90
17425;DHT22;8830;50.978;5.058;2023-02-20T16:52:45;10.70;99.90
17425;DHT22;8830;50.978;5.058;2023-02-20T16:55:18;10.30;99.90
17425;DHT22;8830;50.978;5.058;2023-02-20T16:57:47;10.30;99.90
17425;DHT22;8830;50.978;5.058;2023-02-20T17:00:20;10.30;99.90
17425;DHT22;8830;50.978;5.058;2023-02-20T17:02:48;9.90;99.90
17425;DHT22;8830;50.978;5.058;2023-02-20T17:07:42;10.20;99.90
17425;DHT22;8830;50.978;5.058;2023-02-20T17:12:38;10.20;99.90
17425;DHT22;8830;50.978;5.058;2023-02-20T17:15:07;10.80;99.90
17425;DHT22;8830;50.978;5.058;2023-02-20T17:17:35;10.20;99.90
17425;DHT22;8830;50.978;5.058;2023-02-20T17:20:03;10.20;99.90
17425;DHT22;8830;50.978;5.058;2023-02-20T17:22:30;10.20;99.90
17425;DHT22;8830;50.978;5.058;2023-02-20T17:24:58;10.20;99.90
17425;DHT22;8830;50.978;5.058;2023-02-20T17:29:53;6.20;99.90
17425;DHT22;8830;50.978;5.058;2023-02-20T17:34:51;10.10;99.90
17425;DHT22;8830;50.978;5.058;2023-02-20T17:37:18;10.20;99.90
17425;DHT22;8830;50.978;5.058;2023-02-20T17:39:45;10.10;99.90
17425;DHT22;8830;50.978;5.058;2023-02-20T17:42:12;10.30;99.90
17425;DHT22;8830;50.978;5.058;2023-02-20T17:44:39;10.10;99.90
17425;DHT22;8830;50.978;5.058;2023-02-20T17:47:06;10.90;99.90
17425;DHT22;8830;50.978;5.058;2023-02-20T17:52:03;10.10;99.90
17425;DHT22;8830;50.978;5.058;2023-02-20T17:56:58;10.10;99.90
17425;DHT22;8830;50.978;5.058;2023-02-20T18:01:55;10.10;99.90
17425;DHT22;8830;50.978;5.058;2023-02-20T18:04:29;10.00;99.90
17425;DHT22;8830;50.978;5.058;2023-02-20T18:11:54;10.00;99.90
17425;DHT22;8830;50.978;5.058;2023-02-20T18:14:21;10.00;99.90
17425;DHT22;8830;50.978;5.058;2023-02-20T18:16:51;10.00;99.90
17425;DHT22;8830;50.978;5.058;2023-02-20T18:19:19;10.00;99.90
17425;DHT22;8830;50.978;5.058;2023-02-20T18:21:47;10.00;99.90
17425;DHT22;8830;50.978;5.058;2023-02-20T18:24:18;10.00;99.90
17425;DHT22;8830;50.978;5.058;2023-02-20T18:26:48;9.90;99.90
17425;DHT22;8830;50.978;5.058;2023-02-20T18:31:45;10.40;99.90
17425;DHT22;8830;50.978;5.058;2023-02-20T18:34:13;10.40;99.90
17425;DHT22;8830;50.978;5.058;2023-02-20T18:36:40;10.50;99.90
17425;DHT22;8830;50.978;5.058;2023-02-20T18:39:07;10.40;99.90
17425;DHT22;8830;50.978;5.058;2023-02-20T18:41:37;10.20;99.90
17425;DHT22;8830;50.978;5.058;2023-02-20T18:44:06;10.20;99.90
17425;DHT22;8830;50.978;5.058;2023-02-20T18:46:35;10.20;99.90
17425;DHT22;8830;50.978;5.058;2023-02-20T18:49:04;10.10;99.90
17425;DHT22;8830;50.978;5.058;2023-02-20T18:51:33;10.10;99.90
17425;DHT22;8830;50.978;5.058;2023-02-20T18:56:30;10.00;99.90
17425;DHT22;8830;50.978;5.058;2023-02-20T18:58:58;10.00;99.90
17425;DHT22;8830;50.978;5.058;2023-02-20T19:01:26;10.00;99.90
17425;DHT22;8830;50.978;5.058;2023-02-20T19:03:56;10.00;99.90
17425;DHT22;8830;50.978;5.058;2023-02-20T19:06:29;10.00;99.90
17425;DHT22;8830;50.978;5.058;2023-02-20T19:14:03;10.00;99.90
17425;DHT22;8830;50.978;5.058;2023-02-20T19:16:32;10.00;99.90
17425;DHT22;8830;50.978;5.058;2023-02-20T19:19:02;10.00;99.90
17425;DHT22;8830;50.978;5.058;2023-02-20T19:21:30;11.30;99.90
17425;DHT22;8830;50.978;5.058;2023-02-20T19:23:57;10.00;99.90
17425;DHT22;8830;50.978;5.058;2023-02-20T19:33:48;9.90;99.90
17425;DHT22;8830;50.978;5.058;2023-02-20T19:38:51;9.90;99.90
17425;DHT22;8830;50.978;5.058;2023-02-20T19:41:22;9.80;99.90
17425;DHT22;8830;50.978;5.058;2023-02-20T19:46:19;9.80;99.90
17425;DHT22;8830;50.978;5.058;2023-02-20T19:51:19;9.80;99.90